sensor_id;sensor_type;location;lat;lon;timestamp;temperature;humidity
37300;DHT22;23184;51.902;12.836;2023-04-01T00:01:10;9.00;99.90
37300;DHT22;23184;51.902;12.836;2023-04-01T00:03:39;9.00;99.90
37300;DHT22;23184;51.902;12.836;2023-04-01T00:06:04;9.00;99.90
37300;DHT22;23184;51.902;12.836;2023-04-01T00:08:30;9.00;99.90
37300;DHT22;23184;51.902;12.836;2023-04-01T00:10:56;9.00;99.90
37300;DHT22;23184;51.902;12.836;2023-04-01T00:13:23;9.00;99.90
37300;DHT22;23184;51.902;12.836;2023-04-01T00:15:49;9.00;99.90
37300;DHT22;23184;51.902;12.836;2023-04-01T00:18:15;8.90;99.90
37300;DHT22;23184;51.902;12.836;2023-04-01T00:20:45;8.90;99.90
37300;DHT22;23184;51.902;12.836;2023-04-01T00:23:11;8.90;99.90
37300;DHT22;23184;51.902;12.836;2023-04-01T00:25:36;8.90;99.90
37300;DHT22;23184;51.902;12.836;2023-04-01T00:28:02;8.90;99.90
37300;DHT22;23184;51.902;12.836;2023-04-01T00:30:27;8.80;99.90
37300;DHT22;23184;51.902;12.836;2023-04-01T00:32:53;8.80;99.90
37300;DHT22;23184;51.902;12.836;2023-04-01T00:35:19;8.80;99.90
37300;DHT22;23184;51.902;12.836;2023-04-01T00:37:44;8.80;99.90
37300;DHT22;23184;51.902;12.836;2023-04-01T00:40:32;8.80;99.90
37300;DHT22;23184;51.902;12.836;2023-04-01T00:42:59;8.80;99.90
37300;DHT22;23184;51.902;12.836;2023-04-01T00:45:34;8.80;99.90
37300;DHT22;23184;51.902;12.836;2023-04-01T00:48:10;8.80;99.90
37300;DHT22;23184;51.902;12.836;2023-04-01T00:50:37;8.80;99.90
37300;DHT22;23184;51.902;12.836;2023-04-01T00:53:05;8.80;99.90
37300;DHT22;23184;51.902;12.836;2023-04-01T00:55:34;8.70;99.90
37300;DHT22;23184;51.902;12.836;2023-04-01T00:58:03;8.80;99.90
37300;DHT22;23184;51.902;12.836;2023-04-01T01:00:28;8.70;99.90
37300;DHT22;23184;51.902;12.836;2023-04-01T01:02:54;8.70;99.90
37300;DHT22;23184;51.902;12.836;2023-04-01T01:05:26;8.70;99.90
37300;DHT22;23184;51.902;12.836;2023-04-01T01:10:38;8.70;99.90
37300;DHT22;23184;51.902;12.836;2023-04-01T01:13:10;8.70;99.90
37300;DHT22;23184;51.902;12.836;2023-04-01T01:15:58;8.70;99.90
37300;DHT22;23184;51.902;12.836;2023-04-01T01:24:13;8.70;99.90
37300;DHT22;23184;51.902;12.836;2023-04-01T01:26:59;8.70;99.90
37300;DHT22;23184;51.902;12.836;2023-04-01T01:32:24;8.70;99.90
37300;DHT22;23184;51.902;12.836;2023-04-01T01:37:40;8.70;99.90
37300;DHT22;23184;51.902;12.836;2023-04-01T01:40:09;8.70;99.90
37300;DHT22;23184;51.902;12.836;2023-04-01T01:42:39;8.70;99.90
37300;DHT22;23184;51.902;12.836;2023-04-01T01:45:06;8.70;99.90
37300;DHT22;23184;51.902;12.836;2023-04-01T01:47:33;8.70;99.90
37300;DHT22;23184;51.902;12.836;2023-04-01T01:50:00;8.70;99.90
37300;DHT22;23184;51.902;12.836;2023-04-01T01:52:27;8.70;99.90
37300;DHT22;23184;51.902;12.836;2023-04-01T01:54:56;8.70;99.90
37300;DHT22;23184;51.902;12.836;2023-04-01T01:57:31;8.70;99.90
37300;DHT22;23184;51.902;12.836;2023-04-01T02:00:09;8.70;99.90
37300;DHT22;23184;51.902;12.836;2023-04-01T02:02:42;8.70;99.90
37300;DHT22;23184;51.902;12.836;2023-04-01T02:05:15;8.70;99.90
37300;DHT22;23184;51.902;12.836;2023-04-01T02:07:44;8.70;99.90
37300;DHT22;23184;51.902;12.836;2023-04-01T02:10:12;8.70;99.90
37300;DHT22;23184;51.902;12.836;2023-04-01T02:12:38;8.70;99.90
37300;DHT22;23184;51.902;12.836;2023-04-01T02:15:08;8.70;99.90
37300;DHT22;23184;51.902;12.836;2023-04-01T02:17:37;8.70;99.90
37300;DHT22;23184;51.902;12.836;2023-04-01T02:20:07;8.70;99.90
37300;DHT22;23184;51.902;12.836;2023-04-01T02:22:37;8.60;99.90
37300;DHT22;23184;51.902;12.836;2023-04-01T02:25:17;8.60;99.90
37300;DHT22;23184;51.902;12.836;2023-04-01T02:27:44;8.60;99.90
37300;DHT22;23184;51.902;12.836;2023-04-01T02:30:14;8.60;99.90
37300;DHT22;23184;51.902;12.836;2023-04-01T02:32:41;8.60;99.90
37300;DHT22;23184;51.902;12.836;2023-04-01T02:35:11;8.60;99.90
37300;DHT22;23184;51.902;12.836;2023-04-01T02:37:39;8.60;99.90
37300;DHT22;23184;51.902;12.836;2023-04-01T02:40:10;8.60;99.90
37300;DHT22;23184;51.902;12.836;2023-04-01T02:42:36;8.60;99.90
37300;DHT22;23184;51.902;12.836;2023-04-01T02:45:02;8.60;99.90
37300;DHT22;23184;51.902;12.836;2023-04-01T02:47:28;8.60;99.90
37300;DHT22;23184;51.902;12.836;2023-04-01T02:49:54;8.60;99.90
37300;DHT22;23184;51.902;12.836;2023-04-01T02:52:24;8.50;99.90
37300;DHT22;23184;51.902;12.836;2023-04-01T02:54:50;8.50;99.90
37300;DHT22;23184;51.902;12.836;2023-04-01T02:57:15;8.50;99.90
37300;DHT22;23184;51.902;12.836;2023-04-01T02:59:41;8.50;99.90
37300;DHT22;23184;51.902;12.836;2023-04-01T03:02:06;8.50;99.90
37300;DHT22;23184;51.902;12.836;2023-04-01T03:04:32;8.50;99.90
37300;DHT22;23184;51.902;12.836;2023-04-01T03:06:58;8.50;99.90
37300;DHT22;23184;51.902;12.836;2023-04-01T03:09:23;8.60;99.90
37300;DHT22;23184;51.902;12.836;2023-04-01T03:11:49;8.60;99.90
37300;DHT22;23184;51.902;12.836;2023-04-01T03:14:14;8.60;99.90
37300;DHT22;23184;51.902;12.836;2023-04-01T03:16:40;8.60;99.90
37300;DHT22;23184;51.902;12.836;2023-04-01T03:19:05;8.70;99.90
37300;DHT22;23184;51.902;12.836;2023-04-01T03:21:31;8.60;99.90
37300;DHT22;23184;51.902;12.836;2023-04-01T03:23:56;8.60;99.90
37300;DHT22;23184;51.902;12.836;2023-04-01T03:26:22;8.60;99.90
37300;DHT22;23184;51.902;12.836;2023-04-01T03:28:48;8.60;99.90
37300;DHT22;23184;51.902;12.836;2023-04-01T03:31:13;8.60;99.90
37300;DHT22;23184;51.902;12.836;2023-04-01T03:33:41;8.60;99.90
37300;DHT22;23184;51.902;12.836;2023-04-01T03:36:07;8.60;99.90
37300;DHT22;23184;51.902;12.836;2023-04-01T03:38:36;8.60;99.90
37300;DHT22;23184;51.902;12.836;2023-04-01T03:41:01;8.60;99.90
37300;DHT22;23184;51.902;12.836;2023-04-01T03:43:27;8.60;99.90
37300;DHT22;23184;51.902;12.836;2023-04-01T03:45:53;8.60;99.90
37300;DHT22;23184;51.902;12.836;2023-04-01T03:48:19;8.50;99.90
37300;DHT22;23184;51.902;12.836;2023-04-01T03:50:46;8.50;99.90
37300;DHT22;23184;51.902;12.836;2023-04-01T03:53:11;8.50;99.90
37300;DHT22;23184;51.902;12.836;2023-04-01T03:55:37;8.60;99.90
37300;DHT22;23184;51.902;12.836;2023-04-01T03:58:04;8.60;99.90
37300;DHT22;23184;51.902;12.836;2023-04-01T04:00:30;8.60;99.90
37300;DHT22;23184;51.902;12.836;2023-04-01T04:02:56;8.60;99.90
37300;DHT22;23184;51.902;12.836;2023-04-01T04:05:23;8.60;99.90
37300;DHT22;23184;51.902;12.836;2023-04-01T04:07:49;8.70;99.90
37300;DHT22;23184;51.902;12.836;2023-04-01T04:10:15;8.70;99.90
37300;DHT22;23184;51.902;12.836;2023-04-01T04:12:40;8.70;99.90
37300;DHT22;23184;51.902;12.836;2023-04-01T04:15:07;8.70;99.90
37300;DHT22;23184;51.902;12.836;2023-04-01T04:17:32;8.70;99.90
37300;DHT22;23184;51.902;12.836;2023-04-01T04:19:58;8.70;99.90
37300;DHT22;23184;51.902;12.836;2023-04-01T04:22:24;8.70;99.90
37300;DHT22;23184;51.902;12.836;2023-04-01T04:24:49;8.80;99.90
37300;DHT22;23184;51.902;12.836;2023-04-01T04:27:15;8.70;99.90
37300;DHT22;23184;51.902;12.836;2023-04-01T04:29:40;8.70;99.90
37300;DHT22;23184;51.902;12.836;2023-04-01T04:32:06;8.70;99.90
37300;DHT22;23184;51.902;12.836;2023-04-01T04:34:32;8.70;99.90
37300;DHT22;23184;51.902;12.836;2023-04-01T04:36:58;8.70;99.90
37300;DHT22;23184;51.902;12.836;2023-04-01T04:39:23;8.70;99.90
37300;DHT22;23184;51.902;12.836;2023-04-01T04:41:49;8.60;99.90
37300;DHT22;23184;51.902;12.836;2023-04-01T04:44:14;8.60;99.90
37300;DHT22;23184;51.902;12.836;2023-04-01T04:46:40;8.60;99.90
37300;DHT22;23184;51.902;12.836;2023-04-01T04:49:06;8.50;99.90
37300;DHT22;23184;51.902;12.836;2023-04-01T04:51:31;8.50;99.90
37300;DHT22;23184;51.902;12.836;2023-04-01T04:54:00;8.60;99.90
37300;DHT22;23184;51.902;12.836;2023-04-01T04:56:25;8.60;99.90
37300;DHT22;23184;51.902;12.836;2023-04-01T04:58:51;8.60;99.90
37300;DHT22;23184;51.902;12.836;2023-04-01T05:01:17;8.60;99.90
37300;DHT22;23184;51.902;12.836;2023-04-01T05:03:43;8.60;99.90
37300;DHT22;23184;51.902;12.836;2023-04-01T05:06:12;8.60;99.90
37300;DHT22;23184;51.902;12.836;2023-04-01T05:08:39;8.60;99.90
37300;DHT22;23184;51.902;12.836;2023-04-01T05:11:07;8.70;99.90
37300;DHT22;23184;51.902;12.836;2023-04-01T05:13:35;8.70;99.90
37300;DHT22;23184;51.902;12.836;2023-04-01T05:16:01;8.70;99.90
37300;DHT22;23184;51.902;12.836;2023-04-01T05:18:26;8.70;99.90
37300;DHT22;23184;51.902;12.836;2023-04-01T05:20:53;8.60;99.90
37300;DHT22;23184;51.902;12.836;2023-04-01T05:23:20;8.60;99.90
37300;DHT22;23184;51.902;12.836;2023-04-01T05:25:49;8.60;99.90
37300;DHT22;23184;51.902;12.836;2023-04-01T05:28:16;8.50;99.90
37300;DHT22;23184;51.902;12.836;2023-04-01T05:30:42;8.60;99.90
37300;DHT22;23184;51.902;12.836;2023-04-01T05:33:09;8.60;99.90
37300;DHT22;23184;51.902;12.836;2023-04-01T05:35:35;8.60;99.90
37300;DHT22;23184;51.902;12.836;2023-04-01T05:38:01;8.60;99.90
37300;DHT22;23184;51.902;12.836;2023-04-01T05:40:28;8.70;99.90
37300;DHT22;23184;51.902;12.836;2023-04-01T05:42:53;8.70;99.90
37300;DHT22;23184;51.902;12.836;2023-04-01T05:45:19;8.70;99.90
37300;DHT22;23184;51.902;12.836;2023-04-01T05:47:44;8.70;99.90
37300;DHT22;23184;51.902;12.836;2023-04-01T05:50:10;8.70;99.90
37300;DHT22;23184;51.902;12.836;2023-04-01T05:52:37;8.70;99.90
37300;DHT22;23184;51.902;12.836;2023-04-01T05:55:03;8.70;99.90
37300;DHT22;23184;51.902;12.836;2023-04-01T05:57:29;8.80;99.90
37300;DHT22;23184;51.902;12.836;2023-04-01T05:59:54;8.70;99.90
37300;DHT22;23184;51.902;12.836;2023-04-01T06:02:19;8.80;99.90
37300;DHT22;23184;51.902;12.836;2023-04-01T06:04:45;8.80;99.90
37300;DHT22;23184;51.902;12.836;2023-04-01T06:07:12;8.80;99.90
37300;DHT22;23184;51.902;12.836;2023-04-01T06:09:38;8.80;99.90
37300;DHT22;23184;51.902;12.836;2023-04-01T06:17:41;8.90;99.90
37300;DHT22;23184;51.902;12.836;2023-04-01T06:25:28;8.90;99.90
37300;DHT22;23184;51.902;12.836;2023-04-01T06:28:37;8.90;99.90
37300;DHT22;23184;51.902;12.836;2023-04-01T06:31:30;9.00;99.90
37300;DHT22;23184;51.902;12.836;2023-04-01T06:37:20;9.00;99.90
37300;DHT22;23184;51.902;12.836;2023-04-01T06:40:22;9.00;99.90
37300;DHT22;23184;51.902;12.836;2023-04-01T06:46:20;9.00;99.90
37300;DHT22;23184;51.902;12.836;2023-04-01T06:51:50;9.20;99.90
37300;DHT22;23184;51.902;12.836;2023-04-01T06:54:32;9.20;99.90
37300;DHT22;23184;51.902;12.836;2023-04-01T06:57:16;9.20;99.90
37300;DHT22;23184;51.902;12.836;2023-04-01T06:59:44;9.20;99.90
37300;DHT22;23184;51.902;12.836;2023-04-01T07:04:38;9.20;99.90
37300;DHT22;23184;51.902;12.836;2023-04-01T07:07:35;9.30;99.90
37300;DHT22;23184;51.902;12.836;2023-04-01T07:10:14;9.30;99.90
37300;DHT22;23184;51.902;12.836;2023-04-01T07:12:56;9.30;99.90
37300;DHT22;23184;51.902;12.836;2023-04-01T07:15:28;9.40;99.90
37300;DHT22;23184;51.902;12.836;2023-04-01T07:18:02;9.50;99.90
37300;DHT22;23184;51.902;12.836;2023-04-01T07:20:36;9.60;99.90
37300;DHT22;23184;51.902;12.836;2023-04-01T07:23:05;9.60;99.90
37300;DHT22;23184;51.902;12.836;2023-04-01T07:25:43;9.70;99.90
37300;DHT22;23184;51.902;12.836;2023-04-01T07:28:16;9.70;99.90
37300;DHT22;23184;51.902;12.836;2023-04-01T07:33:50;9.50;99.90
37300;DHT22;23184;51.902;12.836;2023-04-01T07:36:32;9.70;99.90
37300;DHT22;23184;51.902;12.836;2023-04-01T07:39:10;9.70;99.90
37300;DHT22;23184;51.902;12.836;2023-04-01T07:55:14;10.10;99.90
37300;DHT22;23184;51.902;12.836;2023-04-01T07:58:07;10.20;99.90
37300;DHT22;23184;51.902;12.836;2023-04-01T08:03:27;10.40;99.90
37300;DHT22;23184;51.902;12.836;2023-04-01T08:06:06;10.50;99.90
37300;DHT22;23184;51.902;12.836;2023-04-01T08:09:06;10.40;99.90
37300;DHT22;23184;51.902;12.836;2023-04-01T08:14:27;10.40;99.90
37300;DHT22;23184;51.902;12.836;2023-04-01T08:19:55;10.50;99.90
37300;DHT22;23184;51.902;12.836;2023-04-01T08:22:41;10.40;99.90
37300;DHT22;23184;51.902;12.836;2023-04-01T08:25:16;10.40;99.90
37300;DHT22;23184;51.902;12.836;2023-04-01T08:27:56;10.30;99.90
37300;DHT22;23184;51.902;12.836;2023-04-01T08:31:01;10.40;99.90
37300;DHT22;23184;51.902;12.836;2023-04-01T08:33:25;10.60;99.90
37300;DHT22;23184;51.902;12.836;2023-04-01T08:35:56;10.50;99.90
37300;DHT22;23184;51.902;12.836;2023-04-01T08:38:41;10.60;99.90
37300;DHT22;23184;51.902;12.836;2023-04-01T08:46:57;11.00;99.90
37300;DHT22;23184;51.902;12.836;2023-04-01T08:52:34;11.00;99.90
37300;DHT22;23184;51.902;12.836;2023-04-01T08:55:20;11.00;99.90
37300;DHT22;23184;51.902;12.836;2023-04-01T09:00:31;11.10;99.90
37300;DHT22;23184;51.902;12.836;2023-04-01T09:11:21;11.10;99.90
37300;DHT22;23184;51.902;12.836;2023-04-01T09:33:30;11.20;99.90
37300;DHT22;23184;51.902;12.836;2023-04-01T09:38:35;11.30;99.90
37300;DHT22;23184;51.902;12.836;2023-04-01T09:44:22;11.40;99.90
37300;DHT22;23184;51.902;12.836;2023-04-01T09:58:16;11.80;99.90
37300;DHT22;23184;51.902;12.836;2023-04-01T10:01:02;11.90;99.90
37300;DHT22;23184;51.902;12.836;2023-04-01T10:09:53;11.70;99.90
37300;DHT22;23184;51.902;12.836;2023-04-01T10:24:05;11.70;99.90
37300;DHT22;23184;51.902;12.836;2023-04-01T10:29:56;11.70;99.90
37300;DHT22;23184;51.902;12.836;2023-04-01T10:38:46;12.20;99.90
37300;DHT22;23184;51.902;12.836;2023-04-01T10:53:21;13.40;99.90
37300;DHT22;23184;51.902;12.836;2023-04-01T11:07:31;13.00;99.90
37300;DHT22;23184;51.902;12.836;2023-04-01T11:29:33;12.30;99.90
37300;DHT22;23184;51.902;12.836;2023-04-01T11:34:53;12.40;99.90
37300;DHT22;23184;51.902;12.836;2023-04-01T11:37:41;12.40;99.90
37300;DHT22;23184;51.902;12.836;2023-04-01T11:45:36;12.40;99.90
37300;DHT22;23184;51.902;12.836;2023-04-01T11:51:05;12.40;99.90
37300;DHT22;23184;51.902;12.836;2023-04-01T11:53:52;12.60;99.90
37300;DHT22;23184;51.902;12.836;2023-04-01T11:56:58;12.60;99.90
37300;DHT22;23184;51.902;12.836;2023-04-01T12:02:42;12.70;99.90
37300;DHT22;23184;51.902;12.836;2023-04-01T12:08:51;13.20;99.90
37300;DHT22;23184;51.902;12.836;2023-04-01T12:11:17;13.50;99.90
37300;DHT22;23184;51.902;12.836;2023-04-01T12:14:14;14.10;99.90
37300;DHT22;23184;51.902;12.836;2023-04-01T12:19:48;14.80;99.90
37300;DHT22;23184;51.902;12.836;2023-04-01T12:22:21;14.80;99.90
37300;DHT22;23184;51.902;12.836;2023-04-01T12:28:02;15.50;99.90
37300;DHT22;23184;51.902;12.836;2023-04-01T12:36:51;13.70;99.90
37300;DHT22;23184;51.902;12.836;2023-04-01T12:39:44;13.20;99.90
37300;DHT22;23184;51.902;12.836;2023-04-01T12:53:28;12.60;99.90
37300;DHT22;23184;51.902;12.836;2023-04-01T12:56:02;12.50;99.90
37300;DHT22;23184;51.902;12.836;2023-04-01T13:07:27;12.60;99.90
37300;DHT22;23184;51.902;12.836;2023-04-01T13:12:47;12.80;99.90
37300;DHT22;23184;51.902;12.836;2023-04-01T13:15:41;12.80;99.90
37300;DHT22;23184;51.902;12.836;2023-04-01T13:18:22;12.80;99.90
37300;DHT22;23184;51.902;12.836;2023-04-01T13:21:10;12.70;99.90
37300;DHT22;23184;51.902;12.836;2023-04-01T13:26:29;12.70;99.90
37300;DHT22;23184;51.902;12.836;2023-04-01T13:29:21;12.70;99.90
37300;DHT22;23184;51.902;12.836;2023-04-01T13:32:14;12.50;99.90
37300;DHT22;23184;51.902;12.836;2023-04-01T13:35:18;12.50;99.90
37300;DHT22;23184;51.902;12.836;2023-04-01T13:38:05;12.50;99.90
37300;DHT22;23184;51.902;12.836;2023-04-01T13:40:41;12.50;99.90
37300;DHT22;23184;51.902;12.836;2023-04-01T13:43:23;12.60;99.90
37300;DHT22;23184;51.902;12.836;2023-04-01T13:48:46;12.60;99.90
37300;DHT22;23184;51.902;12.836;2023-04-01T14:03:12;13.00;99.90
37300;DHT22;23184;51.902;12.836;2023-04-01T14:06:09;13.10;99.90
37300;DHT22;23184;51.902;12.836;2023-04-01T14:08:42;12.90;99.90
37300;DHT22;23184;51.902;12.836;2023-04-01T14:14:13;13.00;99.90
37300;DHT22;23184;51.902;12.836;2023-04-01T14:22:38;13.40;99.90
37300;DHT22;23184;51.902;12.836;2023-04-01T14:25:25;13.30;99.90
37300;DHT22;23184;51.902;12.836;2023-04-01T14:28:03;13.30;99.90
37300;DHT22;23184;51.902;12.836;2023-04-01T14:33:51;13.70;99.90
37300;DHT22;23184;51.902;12.836;2023-04-01T14:36:50;13.80;99.90
37300;DHT22;23184;51.902;12.836;2023-04-01T14:42:40;13.20;99.90
37300;DHT22;23184;51.902;12.836;2023-04-01T14:48:28;12.70;99.90
37300;DHT22;23184;51.902;12.836;2023-04-01T14:51:03;12.60;99.90
37300;DHT22;23184;51.902;12.836;2023-04-01T14:53:37;12.40;99.90
37300;DHT22;23184;51.902;12.836;2023-04-01T14:56:04;12.30;99.90
37300;DHT22;23184;51.902;12.836;2023-04-01T14:58:46;12.10;99.90
37300;DHT22;23184;51.902;12.836;2023-04-01T15:13:23;11.40;99.90
37300;DHT22;23184;51.902;12.836;2023-04-01T15:16:18;11.30;99.90
37300;DHT22;23184;51.902;12.836;2023-04-01T15:24:24;11.00;99.90
37300;DHT22;23184;51.902;12.836;2023-04-01T15:27:09;10.90;99.90
37300;DHT22;23184;51.902;12.836;2023-04-01T15:30:04;10.90;99.90
37300;DHT22;23184;51.902;12.836;2023-04-01T15:35:30;10.60;99.90
37300;DHT22;23184;51.902;12.836;2023-04-01T15:41:03;10.40;99.90
37300;DHT22;23184;51.902;12.836;2023-04-01T15:46:41;10.30;99.90
37300;DHT22;23184;51.902;12.836;2023-04-01T15:49:16;10.20;99.90
37300;DHT22;23184;51.902;12.836;2023-04-01T16:00:29;10.00;99.90
37300;DHT22;23184;51.902;12.836;2023-04-01T16:03:20;9.90;99.90
37300;DHT22;23184;51.902;12.836;2023-04-01T16:08:57;9.70;99.90
37300;DHT22;23184;51.902;12.836;2023-04-01T16:17:23;9.40;99.90
37300;DHT22;23184;51.902;12.836;2023-04-01T16:20:14;9.30;99.90
37300;DHT22;23184;51.902;12.836;2023-04-01T16:22:59;9.20;99.90
37300;DHT22;23184;51.902;12.836;2023-04-01T16:25:53;9.10;99.90
37300;DHT22;23184;51.902;12.836;2023-04-01T16:31:35;8.90;99.90
37300;DHT22;23184;51.902;12.836;2023-04-01T16:34:36;9.00;99.90
37300;DHT22;23184;51.902;12.836;2023-04-01T16:37:10;8.90;99.90
37300;DHT22;23184;51.902;12.836;2023-04-01T16:39:45;8.90;99.90
37300;DHT22;23184;51.902;12.836;2023-04-01T16:47:47;8.80;99.90
37300;DHT22;23184;51.902;12.836;2023-04-01T16:53:17;8.70;99.90
37300;DHT22;23184;51.902;12.836;2023-04-01T16:55:57;8.60;99.90
37300;DHT22;23184;51.902;12.836;2023-04-01T16:58:36;8.50;99.90
37300;DHT22;23184;51.902;12.836;2023-04-01T17:01:12;8.40;99.90
37300;DHT22;23184;51.902;12.836;2023-04-01T17:03:45;8.40;99.90
37300;DHT22;23184;51.902;12.836;2023-04-01T17:06:17;8.30;99.90
37300;DHT22;23184;51.902;12.836;2023-04-01T17:11:30;8.30;99.90
37300;DHT22;23184;51.902;12.836;2023-04-01T17:14:29;8.30;99.90
37300;DHT22;23184;51.902;12.836;2023-04-01T17:19:56;8.20;99.90
37300;DHT22;23184;51.902;12.836;2023-04-01T17:22:46;8.10;99.90
37300;DHT22;23184;51.902;12.836;2023-04-01T17:28:24;8.00;99.90
37300;DHT22;23184;51.902;12.836;2023-04-01T17:31:07;7.90;99.90
37300;DHT22;23184;51.902;12.836;2023-04-01T17:33:45;7.90;99.90
37300;DHT22;23184;51.902;12.836;2023-04-01T17:36:44;7.80;99.90
37300;DHT22;23184;51.902;12.836;2023-04-01T17:42:00;7.80;99.90
37300;DHT22;23184;51.902;12.836;2023-04-01T17:44:53;7.80;99.90
37300;DHT22;23184;51.902;12.836;2023-04-01T17:48:05;7.70;99.90
37300;DHT22;23184;51.902;12.836;2023-04-01T17:56:19;7.70;99.90
37300;DHT22;23184;51.902;12.836;2023-04-01T18:01:54;7.60;99.90
37300;DHT22;23184;51.902;12.836;2023-04-01T18:04:40;7.60;99.90
37300;DHT22;23184;51.902;12.836;2023-04-01T18:07:30;7.60;99.90
37300;DHT22;23184;51.902;12.836;2023-04-01T18:10:20;7.60;99.90
37300;DHT22;23184;51.902;12.836;2023-04-01T18:18:35;7.40;99.90
37300;DHT22;23184;51.902;12.836;2023-04-01T18:21:19;7.40;99.90
37300;DHT22;23184;51.902;12.836;2023-04-01T18:23:55;7.40;99.90
37300;DHT22;23184;51.902;12.836;2023-04-01T18:26:35;7.40;99.90
37300;DHT22;23184;51.902;12.836;2023-04-01T18:31:55;7.30;99.90
37300;DHT22;23184;51.902;12.836;2023-04-01T18:34:39;7.30;99.90
37300;DHT22;23184;51.902;12.836;2023-04-01T18:40:38;7.30;99.90
37300;DHT22;23184;51.902;12.836;2023-04-01T18:43:21;7.30;99.90
37300;DHT22;23184;51.902;12.836;2023-04-01T18:46:48;7.20;99.90
37300;DHT22;23184;51.902;12.836;2023-04-01T18:55:14;7.20;99.90
37300;DHT22;23184;51.902;12.836;2023-04-01T18:57:40;7.10;99.90
37300;DHT22;23184;51.902;12.836;2023-04-01T19:00:32;7.10;99.90
37300;DHT22;23184;51.902;12.836;2023-04-01T19:08:48;7.00;99.90
37300;DHT22;23184;51.902;12.836;2023-04-01T19:11:39;7.00;99.90
37300;DHT22;23184;51.902;12.836;2023-04-01T19:25:29;6.90;99.90
37300;DHT22;23184;51.902;12.836;2023-04-01T19:28:20;6.80;99.90
37300;DHT22;23184;51.902;12.836;2023-04-01T19:30:59;6.70;99.90
37300;DHT22;23184;51.902;12.836;2023-04-01T19:33:33;6.80;99.90
37300;DHT22;23184;51.902;12.836;2023-04-01T19:36:21;6.70;99.90
37300;DHT22;23184;51.902;12.836;2023-04-01T19:47:50;6.50;99.90
37300;DHT22;23184;51.902;12.836;2023-04-01T19:52:56;6.40;99.90
37300;DHT22;23184;51.902;12.836;2023-04-01T19:58:41;6.30;99.90
37300;DHT22;23184;51.902;12.836;2023-04-01T20:01:16;6.30;99.90
37300;DHT22;23184;51.902;12.836;2023-04-01T20:03:55;6.20;99.90
37300;DHT22;23184;51.902;12.836;2023-04-01T20:06:33;6.20;99.90
37300;DHT22;23184;51.902;12.836;2023-04-01T20:12:38;6.00;99.90
37300;DHT22;23184;51.902;12.836;2023-04-01T20:14:56;6.00;99.90
37300;DHT22;23184;51.902;12.836;2023-04-01T20:17:32;6.00;99.90
37300;DHT22;23184;51.902;12.836;2023-04-01T20:25:31;5.90;99.90
37300;DHT22;23184;51.902;12.836;2023-04-01T20:50:29;5.60;99.90
37300;DHT22;23184;51.902;12.836;2023-04-01T21:02:08;5.50;99.90
37300;DHT22;23184;51.902;12.836;2023-04-01T21:07:41;5.50;99.90
37300;DHT22;23184;51.902;12.836;2023-04-01T21:13:15;5.40;99.90
37300;DHT22;23184;51.902;12.836;2023-04-01T21:18:51;5.30;99.90
37300;DHT22;23184;51.902;12.836;2023-04-01T21:21:36;5.30;99.90
37300;DHT22;23184;51.902;12.836;2023-04-01T21:32:55;5.30;99.90
37300;DHT22;23184;51.902;12.836;2023-04-01T21:35:44;5.30;99.90
37300;DHT22;23184;51.902;12.836;2023-04-01T21:41:11;5.30;99.90
37300;DHT22;23184;51.902;12.836;2023-04-01T22:05:56;5.00;99.90
37300;DHT22;23184;51.902;12.836;2023-04-01T22:11:33;4.90;99.90
37300;DHT22;23184;51.902;12.836;2023-04-01T22:14:09;4.90;99.90
37300;DHT22;23184;51.902;12.836;2023-04-01T22:19:40;4.90;99.90
37300;DHT22;23184;51.902;12.836;2023-04-01T22:22:16;4.90;99.90
37300;DHT22;23184;51.902;12.836;2023-04-01T22:27:30;4.80;99.90
37300;DHT22;23184;51.902;12.836;2023-04-01T22:30:03;4.70;99.90
37300;DHT22;23184;51.902;12.836;2023-04-01T22:32:52;4.70;99.90
37300;DHT22;23184;51.902;12.836;2023-04-01T22:35:46;4.70;99.90
37300;DHT22;23184;51.902;12.836;2023-04-01T22:41:13;4.60;99.90
37300;DHT22;23184;51.902;12.836;2023-04-01T22:43:43;4.60;99.90
37300;DHT22;23184;51.902;12.836;2023-04-01T22:49:10;4.60;99.90
37300;DHT22;23184;51.902;12.836;2023-04-01T22:51:50;4.60;99.90
37300;DHT22;23184;51.902;12.836;2023-04-01T22:54:44;4.50;99.90
37300;DHT22;23184;51.902;12.836;2023-04-01T22:57:16;4.50;99.90
37300;DHT22;23184;51.902;12.836;2023-04-01T22:59:57;4.50;99.90
37300;DHT22;23184;51.902;12.836;2023-04-01T23:02:33;4.40;99.90
37300;DHT22;23184;51.902;12.836;2023-04-01T23:05:02;4.40;99.90
37300;DHT22;23184;51.902;12.836;2023-04-01T23:10:42;4.30;99.90
37300;DHT22;23184;51.902;12.836;2023-04-01T23:13:15;4.30;99.90
37300;DHT22;23184;51.902;12.836;2023-04-01T23:15:44;4.30;99.90
37300;DHT22;23184;51.902;12.836;2023-04-01T23:18:36;4.40;99.90
37300;DHT22;23184;51.902;12.836;2023-04-01T23:21:21;4.30;99.90
37300;DHT22;23184;51.902;12.836;2023-04-01T23:26:38;4.30;99.90
37300;DHT22;23184;51.902;12.836;2023-04-01T23:29:11;4.30;99.90
37300;DHT22;23184;51.902;12.836;2023-04-01T23:31:40;4.30;99.90
37300;DHT22;23184;51.902;12.836;2023-04-01T23:41:42;4.20;99.90
37300;DHT22;23184;51.902;12.836;2023-04-01T23:44:11;4.20;99.90
37300;DHT22;23184;51.902;12.836;2023-04-01T23:46:39;4.20;99.90
37300;DHT22;23184;51.902;12.836;2023-04-01T23:49:11;4.20;99.90
37300;DHT22;23184;51.902;12.836;2023-04-01T23:51:48;4.20;99.90
37300;DHT22;23184;51.902;12.836;2023-04-01T23:54:19;4.20;99.90
37300;DHT22;23184;51.902;12.836;2023-04-01T23:56:51;4.20;99.90
37300;DHT22;23184;51.902;12.836;2023-04-01T23:59:38;4.10;99.90
